sensor_id;sensor_type;location;lat;lon;timestamp;P1;durP1;ratioP1;P2;durP2;ratioP2
15192;SDS011;7697;51.630;7.484;2022-12-08T00:02:44;14.17;;;10.13;;
15192;SDS011;7697;51.630;7.484;2022-12-08T00:07:45;14.00;;;10.37;;
15192;SDS011;7697;51.630;7.484;2022-12-08T00:13:06;13.13;;;9.67;;
15192;SDS011;7697;51.630;7.484;2022-12-08T00:18:07;11.67;;;9.40;;
15192;SDS011;7697;51.630;7.484;2022-12-08T00:23:09;12.73;;;8.83;;
15192;SDS011;7697;51.630;7.484;2022-12-08T00:28:12;10.40;;;8.30;;
15192;SDS011;7697;51.630;7.484;2022-12-08T00:33:13;12.80;;;9.10;;
15192;SDS011;7697;51.630;7.484;2022-12-08T00:38:15;11.37;;;8.47;;
15192;SDS011;7697;51.630;7.484;2022-12-08T00:43:18;10.93;;;9.17;;
15192;SDS011;7697;51.630;7.484;2022-12-08T00:48:20;14.17;;;9.67;;
15192;SDS011;7697;51.630;7.484;2022-12-08T00:53:21;14.10;;;11.13;;
15192;SDS011;7697;51.630;7.484;2022-12-08T00:58:24;12.10;;;10.67;;
15192;SDS011;7697;51.630;7.484;2022-12-08T01:03:26;15.67;;;11.93;;
15192;SDS011;7697;51.630;7.484;2022-12-08T01:08:28;20.20;;;15.93;;
15192;SDS011;7697;51.630;7.484;2022-12-08T01:13:31;19.13;;;15.40;;
15192;SDS011;7697;51.630;7.484;2022-12-08T01:18:33;18.63;;;14.90;;
15192;SDS011;7697;51.630;7.484;2022-12-08T01:23:35;20.03;;;14.63;;
15192;SDS011;7697;51.630;7.484;2022-12-08T01:28:38;17.83;;;14.27;;
15192;SDS011;7697;51.630;7.484;2022-12-08T01:33:41;15.57;;;13.97;;
15192;SDS011;7697;51.630;7.484;2022-12-08T01:38:43;20.77;;;16.60;;
15192;SDS011;7697;51.630;7.484;2022-12-08T01:43:49;21.27;;;15.63;;
15192;SDS011;7697;51.630;7.484;2022-12-08T01:48:59;18.73;;;15.67;;
15192;SDS011;7697;51.630;7.484;2022-12-08T01:54:03;18.93;;;14.73;;
15192;SDS011;7697;51.630;7.484;2022-12-08T01:59:09;16.47;;;14.13;;
15192;SDS011;7697;51.630;7.484;2022-12-08T02:04:11;16.83;;;14.27;;
15192;SDS011;7697;51.630;7.484;2022-12-08T02:09:13;16.20;;;14.50;;
15192;SDS011;7697;51.630;7.484;2022-12-08T02:14:16;17.23;;;14.47;;
15192;SDS011;7697;51.630;7.484;2022-12-08T02:19:25;18.13;;;14.80;;
15192;SDS011;7697;51.630;7.484;2022-12-08T02:24:44;15.77;;;13.70;;
15192;SDS011;7697;51.630;7.484;2022-12-08T02:30:00;19.53;;;15.00;;
15192;SDS011;7697;51.630;7.484;2022-12-08T02:35:09;18.00;;;14.77;;
15192;SDS011;7697;51.630;7.484;2022-12-08T02:40:15;19.03;;;14.70;;
15192;SDS011;7697;51.630;7.484;2022-12-08T02:45:22;16.50;;;13.70;;
15192;SDS011;7697;51.630;7.484;2022-12-08T02:50:31;15.00;;;13.33;;
15192;SDS011;7697;51.630;7.484;2022-12-08T02:55:35;17.53;;;15.10;;
15192;SDS011;7697;51.630;7.484;2022-12-08T03:00:50;16.43;;;13.93;;
15192;SDS011;7697;51.630;7.484;2022-12-08T03:06:06;20.57;;;15.97;;
15192;SDS011;7697;51.630;7.484;2022-12-08T03:11:19;24.03;;;17.93;;
15192;SDS011;7697;51.630;7.484;2022-12-08T03:16:26;18.70;;;16.03;;
15192;SDS011;7697;51.630;7.484;2022-12-08T03:21:31;22.40;;;18.10;;
15192;SDS011;7697;51.630;7.484;2022-12-08T03:26:37;22.23;;;17.77;;
15192;SDS011;7697;51.630;7.484;2022-12-08T03:31:49;20.57;;;17.20;;
15192;SDS011;7697;51.630;7.484;2022-12-08T03:36:58;19.13;;;16.10;;
15192;SDS011;7697;51.630;7.484;2022-12-08T03:42:01;24.53;;;18.33;;
15192;SDS011;7697;51.630;7.484;2022-12-08T03:47:02;20.60;;;16.70;;
15192;SDS011;7697;51.630;7.484;2022-12-08T03:52:06;19.80;;;16.20;;
15192;SDS011;7697;51.630;7.484;2022-12-08T03:57:07;20.70;;;17.50;;
15192;SDS011;7697;51.630;7.484;2022-12-08T04:02:09;25.47;;;19.60;;
15192;SDS011;7697;51.630;7.484;2022-12-08T04:07:12;26.27;;;19.30;;
15192;SDS011;7697;51.630;7.484;2022-12-08T04:12:14;24.63;;;19.80;;
15192;SDS011;7697;51.630;7.484;2022-12-08T04:17:16;27.13;;;20.73;;
15192;SDS011;7697;51.630;7.484;2022-12-08T04:22:19;23.70;;;18.67;;
15192;SDS011;7697;51.630;7.484;2022-12-08T04:27:20;25.67;;;19.63;;
15192;SDS011;7697;51.630;7.484;2022-12-08T04:32:22;28.20;;;19.80;;
15192;SDS011;7697;51.630;7.484;2022-12-08T04:37:27;23.73;;;18.93;;
15192;SDS011;7697;51.630;7.484;2022-12-08T04:42:29;24.70;;;18.93;;
15192;SDS011;7697;51.630;7.484;2022-12-08T04:47:31;26.37;;;19.57;;
15192;SDS011;7697;51.630;7.484;2022-12-08T04:52:34;24.83;;;19.57;;
15192;SDS011;7697;51.630;7.484;2022-12-08T04:57:36;25.27;;;19.60;;
15192;SDS011;7697;51.630;7.484;2022-12-08T05:02:37;25.63;;;19.70;;
15192;SDS011;7697;51.630;7.484;2022-12-08T05:07:41;25.93;;;18.57;;
15192;SDS011;7697;51.630;7.484;2022-12-08T05:12:42;22.90;;;17.43;;
15192;SDS011;7697;51.630;7.484;2022-12-08T05:17:44;27.43;;;20.70;;
15192;SDS011;7697;51.630;7.484;2022-12-08T05:22:47;24.40;;;18.87;;
15192;SDS011;7697;51.630;7.484;2022-12-08T05:27:49;26.67;;;20.10;;
15192;SDS011;7697;51.630;7.484;2022-12-08T05:32:51;26.93;;;19.47;;
15192;SDS011;7697;51.630;7.484;2022-12-08T05:37:54;25.10;;;19.73;;
15192;SDS011;7697;51.630;7.484;2022-12-08T05:42:55;25.53;;;18.63;;
15192;SDS011;7697;51.630;7.484;2022-12-08T05:47:57;22.23;;;17.40;;
15192;SDS011;7697;51.630;7.484;2022-12-08T05:53:00;22.13;;;17.47;;
15192;SDS011;7697;51.630;7.484;2022-12-08T05:58:02;19.87;;;15.87;;
15192;SDS011;7697;51.630;7.484;2022-12-08T06:03:04;18.80;;;15.20;;
15192;SDS011;7697;51.630;7.484;2022-12-08T06:08:07;22.40;;;16.57;;
15192;SDS011;7697;51.630;7.484;2022-12-08T06:13:08;23.13;;;16.23;;
15192;SDS011;7697;51.630;7.484;2022-12-08T06:18:10;20.17;;;16.67;;
15192;SDS011;7697;51.630;7.484;2022-12-08T06:23:13;21.37;;;16.50;;
15192;SDS011;7697;51.630;7.484;2022-12-08T06:28:15;19.37;;;15.17;;
15192;SDS011;7697;51.630;7.484;2022-12-08T06:33:17;21.70;;;17.63;;
15192;SDS011;7697;51.630;7.484;2022-12-08T06:38:20;21.63;;;16.77;;
15192;SDS011;7697;51.630;7.484;2022-12-08T06:43:21;20.07;;;16.47;;
15192;SDS011;7697;51.630;7.484;2022-12-08T06:48:23;20.90;;;16.03;;
15192;SDS011;7697;51.630;7.484;2022-12-08T06:53:27;20.80;;;17.40;;
15192;SDS011;7697;51.630;7.484;2022-12-08T06:58:29;23.07;;;16.50;;
15192;SDS011;7697;51.630;7.484;2022-12-08T07:03:31;20.57;;;16.67;;
15192;SDS011;7697;51.630;7.484;2022-12-08T07:08:34;17.07;;;14.57;;
15192;SDS011;7697;51.630;7.484;2022-12-08T07:13:35;16.77;;;14.17;;
15192;SDS011;7697;51.630;7.484;2022-12-08T07:18:37;15.23;;;12.60;;
15192;SDS011;7697;51.630;7.484;2022-12-08T07:23:43;12.10;;;10.77;;
15192;SDS011;7697;51.630;7.484;2022-12-08T07:28:46;12.80;;;10.60;;
15192;SDS011;7697;51.630;7.484;2022-12-08T07:33:47;13.73;;;11.67;;
15192;SDS011;7697;51.630;7.484;2022-12-08T07:38:51;12.37;;;10.70;;
15192;SDS011;7697;51.630;7.484;2022-12-08T07:43:56;13.00;;;11.53;;
15192;SDS011;7697;51.630;7.484;2022-12-08T07:49:03;12.87;;;11.00;;
15192;SDS011;7697;51.630;7.484;2022-12-08T07:54:08;13.03;;;10.90;;
15192;SDS011;7697;51.630;7.484;2022-12-08T07:59:11;14.43;;;11.50;;
15192;SDS011;7697;51.630;7.484;2022-12-08T08:04:13;12.17;;;10.50;;
15192;SDS011;7697;51.630;7.484;2022-12-08T08:09:16;12.53;;;10.57;;
15192;SDS011;7697;51.630;7.484;2022-12-08T08:14:18;12.20;;;10.13;;
15192;SDS011;7697;51.630;7.484;2022-12-08T08:19:20;11.20;;;9.90;;
15192;SDS011;7697;51.630;7.484;2022-12-08T08:24:23;11.60;;;10.00;;
15192;SDS011;7697;51.630;7.484;2022-12-08T08:29:25;11.97;;;9.33;;
15192;SDS011;7697;51.630;7.484;2022-12-08T08:34:26;12.03;;;9.40;;
15192;SDS011;7697;51.630;7.484;2022-12-08T08:39:30;10.67;;;9.27;;
15192;SDS011;7697;51.630;7.484;2022-12-08T08:44:31;13.17;;;10.23;;
15192;SDS011;7697;51.630;7.484;2022-12-08T08:49:33;13.50;;;10.23;;
15192;SDS011;7697;51.630;7.484;2022-12-08T08:54:36;13.13;;;11.17;;
15192;SDS011;7697;51.630;7.484;2022-12-08T08:59:38;12.30;;;10.43;;
15192;SDS011;7697;51.630;7.484;2022-12-08T09:04:40;13.23;;;10.67;;
15192;SDS011;7697;51.630;7.484;2022-12-08T09:09:43;14.70;;;11.43;;
15192;SDS011;7697;51.630;7.484;2022-12-08T09:14:45;12.53;;;10.57;;
15192;SDS011;7697;51.630;7.484;2022-12-08T09:19:47;13.13;;;10.67;;
15192;SDS011;7697;51.630;7.484;2022-12-08T09:24:50;12.30;;;10.27;;
15192;SDS011;7697;51.630;7.484;2022-12-08T09:29:51;10.53;;;9.40;;
15192;SDS011;7697;51.630;7.484;2022-12-08T09:34:53;10.67;;;9.03;;
15192;SDS011;7697;51.630;7.484;2022-12-08T09:39:57;12.67;;;10.47;;
15192;SDS011;7697;51.630;7.484;2022-12-08T09:45:01;11.63;;;10.10;;
15192;SDS011;7697;51.630;7.484;2022-12-08T09:50:06;11.53;;;10.33;;
15192;SDS011;7697;51.630;7.484;2022-12-08T09:55:19;15.87;;;13.17;;
15192;SDS011;7697;51.630;7.484;2022-12-08T10:00:24;16.63;;;12.93;;
15192;SDS011;7697;51.630;7.484;2022-12-08T10:05:26;13.67;;;11.67;;
15192;SDS011;7697;51.630;7.484;2022-12-08T10:10:33;12.50;;;11.13;;
15192;SDS011;7697;51.630;7.484;2022-12-08T10:15:40;11.83;;;9.67;;
15192;SDS011;7697;51.630;7.484;2022-12-08T10:20:48;10.97;;;9.87;;
15192;SDS011;7697;51.630;7.484;2022-12-08T10:25:54;9.63;;;8.63;;
15192;SDS011;7697;51.630;7.484;2022-12-08T10:31:00;11.67;;;9.73;;
15192;SDS011;7697;51.630;7.484;2022-12-08T10:36:02;10.33;;;9.33;;
15192;SDS011;7697;51.630;7.484;2022-12-08T10:41:06;12.23;;;8.60;;
15192;SDS011;7697;51.630;7.484;2022-12-08T10:46:13;9.30;;;8.23;;
15192;SDS011;7697;51.630;7.484;2022-12-08T10:51:22;11.07;;;8.83;;
15192;SDS011;7697;51.630;7.484;2022-12-08T10:56:27;9.03;;;8.03;;
15192;SDS011;7697;51.630;7.484;2022-12-08T11:01:31;9.43;;;7.80;;
15192;SDS011;7697;51.630;7.484;2022-12-08T11:06:37;10.17;;;9.03;;
15192;SDS011;7697;51.630;7.484;2022-12-08T11:11:44;10.50;;;9.13;;
15192;SDS011;7697;51.630;7.484;2022-12-08T11:16:48;10.67;;;9.57;;
15192;SDS011;7697;51.630;7.484;2022-12-08T11:21:52;10.23;;;9.10;;
15192;SDS011;7697;51.630;7.484;2022-12-08T11:26:57;10.57;;;9.27;;
15192;SDS011;7697;51.630;7.484;2022-12-08T11:32:02;12.03;;;10.37;;
15192;SDS011;7697;51.630;7.484;2022-12-08T11:37:09;12.43;;;10.33;;
15192;SDS011;7697;51.630;7.484;2022-12-08T11:42:18;12.20;;;10.87;;
15192;SDS011;7697;51.630;7.484;2022-12-08T11:47:25;10.93;;;9.73;;
15192;SDS011;7697;51.630;7.484;2022-12-08T11:52:32;10.93;;;9.27;;
15192;SDS011;7697;51.630;7.484;2022-12-08T11:57:45;10.17;;;8.60;;
15192;SDS011;7697;51.630;7.484;2022-12-08T12:02:49;8.40;;;7.53;;
15192;SDS011;7697;51.630;7.484;2022-12-08T12:08:03;8.83;;;7.93;;
15192;SDS011;7697;51.630;7.484;2022-12-08T12:13:24;8.97;;;7.80;;
15192;SDS011;7697;51.630;7.484;2022-12-08T12:18:41;9.27;;;8.37;;
15192;SDS011;7697;51.630;7.484;2022-12-08T12:23:46;9.70;;;8.47;;
15192;SDS011;7697;51.630;7.484;2022-12-08T12:28:56;9.33;;;8.33;;
15192;SDS011;7697;51.630;7.484;2022-12-08T12:34:04;9.93;;;8.77;;
15192;SDS011;7697;51.630;7.484;2022-12-08T12:39:09;9.67;;;8.67;;
15192;SDS011;7697;51.630;7.484;2022-12-08T13:00:52;10.07;;;9.07;;
15192;SDS011;7697;51.630;7.484;2022-12-08T13:06:31;11.77;;;10.13;;
15192;SDS011;7697;51.630;7.484;2022-12-08T13:11:43;12.47;;;11.17;;
15192;SDS011;7697;51.630;7.484;2022-12-08T13:16:48;12.70;;;11.30;;
15192;SDS011;7697;51.630;7.484;2022-12-08T13:21:55;14.97;;;11.90;;
15192;SDS011;7697;51.630;7.484;2022-12-08T13:37:57;10.03;;;9.03;;
15192;SDS011;7697;51.630;7.484;2022-12-08T13:43:05;9.03;;;7.77;;
15192;SDS011;7697;51.630;7.484;2022-12-08T13:48:18;12.20;;;10.20;;
15192;SDS011;7697;51.630;7.484;2022-12-08T13:53:27;12.77;;;11.47;;
15192;SDS011;7697;51.630;7.484;2022-12-08T13:58:36;13.50;;;11.80;;
15192;SDS011;7697;51.630;7.484;2022-12-08T14:03:45;15.43;;;13.73;;
15192;SDS011;7697;51.630;7.484;2022-12-08T14:08:50;13.17;;;11.77;;
15192;SDS011;7697;51.630;7.484;2022-12-08T14:13:55;16.47;;;13.83;;
15192;SDS011;7697;51.630;7.484;2022-12-08T14:19:03;14.63;;;12.47;;
15192;SDS011;7697;51.630;7.484;2022-12-08T14:24:07;15.23;;;13.63;;
15192;SDS011;7697;51.630;7.484;2022-12-08T14:29:10;13.57;;;11.67;;
15192;SDS011;7697;51.630;7.484;2022-12-08T14:34:27;14.40;;;12.23;;
15192;SDS011;7697;51.630;7.484;2022-12-08T14:39:29;12.77;;;11.43;;
15192;SDS011;7697;51.630;7.484;2022-12-08T14:44:32;11.17;;;10.00;;
15192;SDS011;7697;51.630;7.484;2022-12-08T14:49:40;11.97;;;10.77;;
15192;SDS011;7697;51.630;7.484;2022-12-08T14:54:43;17.37;;;14.37;;
15192;SDS011;7697;51.630;7.484;2022-12-08T14:59:46;14.83;;;13.23;;
15192;SDS011;7697;51.630;7.484;2022-12-08T15:04:54;19.63;;;16.00;;
15192;SDS011;7697;51.630;7.484;2022-12-08T15:10:06;16.97;;;13.50;;
15192;SDS011;7697;51.630;7.484;2022-12-08T15:15:13;16.33;;;13.80;;
15192;SDS011;7697;51.630;7.484;2022-12-08T15:20:29;16.33;;;14.10;;
15192;SDS011;7697;51.630;7.484;2022-12-08T15:25:39;15.90;;;14.00;;
15192;SDS011;7697;51.630;7.484;2022-12-08T15:30:41;16.70;;;13.50;;
15192;SDS011;7697;51.630;7.484;2022-12-08T15:35:44;18.27;;;15.10;;
15192;SDS011;7697;51.630;7.484;2022-12-08T15:40:46;17.97;;;13.67;;
15192;SDS011;7697;51.630;7.484;2022-12-08T15:45:48;15.93;;;11.87;;
15192;SDS011;7697;51.630;7.484;2022-12-08T15:50:52;13.73;;;11.13;;
15192;SDS011;7697;51.630;7.484;2022-12-08T15:55:54;11.13;;;9.63;;
15192;SDS011;7697;51.630;7.484;2022-12-08T16:00:56;11.23;;;9.13;;
15192;SDS011;7697;51.630;7.484;2022-12-08T16:05:59;10.47;;;8.47;;
15192;SDS011;7697;51.630;7.484;2022-12-08T16:11:01;12.20;;;9.87;;
15192;SDS011;7697;51.630;7.484;2022-12-08T16:16:16;12.23;;;9.60;;
15192;SDS011;7697;51.630;7.484;2022-12-08T16:21:22;12.07;;;10.17;;
15192;SDS011;7697;51.630;7.484;2022-12-08T16:26:25;11.07;;;9.43;;
15192;SDS011;7697;51.630;7.484;2022-12-08T16:31:27;12.47;;;9.53;;
15192;SDS011;7697;51.630;7.484;2022-12-08T16:36:30;12.67;;;8.97;;
15192;SDS011;7697;51.630;7.484;2022-12-08T16:41:32;16.57;;;12.93;;
15192;SDS011;7697;51.630;7.484;2022-12-08T16:46:51;12.63;;;10.57;;
15192;SDS011;7697;51.630;7.484;2022-12-08T16:51:53;12.60;;;10.73;;
15192;SDS011;7697;51.630;7.484;2022-12-08T16:56:55;18.27;;;14.37;;
15192;SDS011;7697;51.630;7.484;2022-12-08T17:01:57;16.40;;;12.77;;
15192;SDS011;7697;51.630;7.484;2022-12-08T17:07:00;13.77;;;11.23;;
15192;SDS011;7697;51.630;7.484;2022-12-08T17:12:01;13.90;;;11.83;;
15192;SDS011;7697;51.630;7.484;2022-12-08T17:17:03;18.73;;;14.17;;
15192;SDS011;7697;51.630;7.484;2022-12-08T17:22:06;19.13;;;14.37;;
15192;SDS011;7697;51.630;7.484;2022-12-08T17:27:08;17.53;;;13.90;;
15192;SDS011;7697;51.630;7.484;2022-12-08T17:32:10;21.30;;;15.63;;
15192;SDS011;7697;51.630;7.484;2022-12-08T17:37:13;16.97;;;14.07;;
15192;SDS011;7697;51.630;7.484;2022-12-08T17:42:15;16.50;;;13.23;;
15192;SDS011;7697;51.630;7.484;2022-12-08T17:47:17;18.30;;;14.73;;
15192;SDS011;7697;51.630;7.484;2022-12-08T17:52:20;19.77;;;16.10;;
15192;SDS011;7697;51.630;7.484;2022-12-08T17:57:22;18.17;;;15.03;;
15192;SDS011;7697;51.630;7.484;2022-12-08T18:02:26;17.63;;;14.60;;
15192;SDS011;7697;51.630;7.484;2022-12-08T18:07:30;17.00;;;14.20;;
15192;SDS011;7697;51.630;7.484;2022-12-08T18:12:38;15.87;;;13.73;;
15192;SDS011;7697;51.630;7.484;2022-12-08T18:17:45;18.90;;;16.23;;
15192;SDS011;7697;51.630;7.484;2022-12-08T18:23:02;25.13;;;20.20;;
15192;SDS011;7697;51.630;7.484;2022-12-08T18:28:05;23.80;;;19.00;;
15192;SDS011;7697;51.630;7.484;2022-12-08T18:33:12;18.80;;;16.00;;
15192;SDS011;7697;51.630;7.484;2022-12-08T18:38:25;18.37;;;15.03;;
15192;SDS011;7697;51.630;7.484;2022-12-08T18:43:30;23.33;;;18.87;;
15192;SDS011;7697;51.630;7.484;2022-12-08T18:48:32;19.60;;;15.93;;
15192;SDS011;7697;51.630;7.484;2022-12-08T18:53:36;20.93;;;17.10;;
15192;SDS011;7697;51.630;7.484;2022-12-08T18:58:38;28.47;;;21.73;;
15192;SDS011;7697;51.630;7.484;2022-12-08T19:03:39;22.07;;;17.03;;
15192;SDS011;7697;51.630;7.484;2022-12-08T19:08:42;21.23;;;16.57;;
15192;SDS011;7697;51.630;7.484;2022-12-08T19:13:44;19.80;;;16.23;;
15192;SDS011;7697;51.630;7.484;2022-12-08T19:18:46;20.10;;;15.67;;
15192;SDS011;7697;51.630;7.484;2022-12-08T19:23:50;17.10;;;14.60;;
15192;SDS011;7697;51.630;7.484;2022-12-08T19:28:52;18.20;;;14.77;;
15192;SDS011;7697;51.630;7.484;2022-12-08T19:33:54;16.37;;;13.70;;
15192;SDS011;7697;51.630;7.484;2022-12-08T19:38:58;17.90;;;14.57;;
15192;SDS011;7697;51.630;7.484;2022-12-08T19:44:17;18.03;;;14.70;;
15192;SDS011;7697;51.630;7.484;2022-12-08T19:49:37;16.53;;;13.80;;
15192;SDS011;7697;51.630;7.484;2022-12-08T19:54:41;14.63;;;12.07;;
15192;SDS011;7697;51.630;7.484;2022-12-08T19:59:43;15.50;;;13.47;;
15192;SDS011;7697;51.630;7.484;2022-12-08T20:04:45;17.57;;;15.10;;
15192;SDS011;7697;51.630;7.484;2022-12-08T20:09:48;18.83;;;15.23;;
15192;SDS011;7697;51.630;7.484;2022-12-08T20:14:50;17.17;;;14.77;;
15192;SDS011;7697;51.630;7.484;2022-12-08T20:19:51;19.23;;;15.27;;
15192;SDS011;7697;51.630;7.484;2022-12-08T20:24:55;21.80;;;16.27;;
15192;SDS011;7697;51.630;7.484;2022-12-08T20:29:56;19.87;;;15.73;;
15192;SDS011;7697;51.630;7.484;2022-12-08T20:34:58;17.97;;;15.20;;
15192;SDS011;7697;51.630;7.484;2022-12-08T20:40:01;16.70;;;13.93;;
15192;SDS011;7697;51.630;7.484;2022-12-08T20:45:03;16.27;;;13.50;;
15192;SDS011;7697;51.630;7.484;2022-12-08T20:50:08;16.27;;;13.13;;
15192;SDS011;7697;51.630;7.484;2022-12-08T20:55:11;18.73;;;16.17;;
15192;SDS011;7697;51.630;7.484;2022-12-08T21:00:13;18.63;;;15.67;;
15192;SDS011;7697;51.630;7.484;2022-12-08T21:05:15;19.47;;;15.50;;
15192;SDS011;7697;51.630;7.484;2022-12-08T21:10:19;18.03;;;14.97;;
15192;SDS011;7697;51.630;7.484;2022-12-08T21:15:20;18.07;;;14.83;;
15192;SDS011;7697;51.630;7.484;2022-12-08T21:20:22;19.50;;;15.23;;
15192;SDS011;7697;51.630;7.484;2022-12-08T21:25:25;20.07;;;15.37;;
15192;SDS011;7697;51.630;7.484;2022-12-08T21:30:27;18.83;;;16.27;;
15192;SDS011;7697;51.630;7.484;2022-12-08T21:35:28;21.73;;;17.03;;
15192;SDS011;7697;51.630;7.484;2022-12-08T21:40:32;19.20;;;15.73;;
15192;SDS011;7697;51.630;7.484;2022-12-08T21:45:35;23.27;;;19.50;;
15192;SDS011;7697;51.630;7.484;2022-12-08T21:50:36;24.03;;;18.87;;
15192;SDS011;7697;51.630;7.484;2022-12-08T21:55:39;22.17;;;18.53;;
15192;SDS011;7697;51.630;7.484;2022-12-08T22:00:41;23.77;;;19.57;;
15192;SDS011;7697;51.630;7.484;2022-12-08T22:05:43;21.70;;;17.10;;
15192;SDS011;7697;51.630;7.484;2022-12-08T22:10:46;17.93;;;15.20;;
15192;SDS011;7697;51.630;7.484;2022-12-08T22:15:53;18.20;;;14.97;;
15192;SDS011;7697;51.630;7.484;2022-12-08T22:20:57;19.33;;;15.30;;
15192;SDS011;7697;51.630;7.484;2022-12-08T22:26:00;21.67;;;17.13;;
15192;SDS011;7697;51.630;7.484;2022-12-08T22:31:06;20.77;;;17.80;;
15192;SDS011;7697;51.630;7.484;2022-12-08T22:36:12;18.03;;;15.27;;
15192;SDS011;7697;51.630;7.484;2022-12-08T22:41:16;17.53;;;14.10;;
15192;SDS011;7697;51.630;7.484;2022-12-08T22:46:19;18.27;;;14.70;;
15192;SDS011;7697;51.630;7.484;2022-12-08T22:51:22;17.83;;;14.80;;
15192;SDS011;7697;51.630;7.484;2022-12-08T22:56:25;18.73;;;15.00;;
15192;SDS011;7697;51.630;7.484;2022-12-08T23:01:28;16.60;;;13.70;;
15192;SDS011;7697;51.630;7.484;2022-12-08T23:06:32;18.30;;;15.77;;
15192;SDS011;7697;51.630;7.484;2022-12-08T23:11:35;18.93;;;14.03;;
15192;SDS011;7697;51.630;7.484;2022-12-08T23:16:36;18.07;;;14.03;;
15192;SDS011;7697;51.630;7.484;2022-12-08T23:21:38;17.93;;;13.73;;
15192;SDS011;7697;51.630;7.484;2022-12-08T23:26:41;19.67;;;15.10;;
15192;SDS011;7697;51.630;7.484;2022-12-08T23:31:43;21.27;;;16.37;;
15192;SDS011;7697;51.630;7.484;2022-12-08T23:36:45;19.23;;;14.90;;
15192;SDS011;7697;51.630;7.484;2022-12-08T23:41:48;22.00;;;15.40;;
15192;SDS011;7697;51.630;7.484;2022-12-08T23:46:49;20.47;;;16.07;;
15192;SDS011;7697;51.630;7.484;2022-12-08T23:51:51;24.10;;;17.67;;
15192;SDS011;7697;51.630;7.484;2022-12-08T23:56:54;21.53;;;16.60;;
